EKSB/SGD METAR and TAF weather

Enter ICAO airport designator
Station Type Date Time Source
EKSB METAR 2020/10/29 16:22 UTC NOAA

EKSB 291622Z 24005KT 220V280 9999 FEW025TCU SCT080 10/08 Q1010


Station Type Date Time Source
EKSB Decoded METAR 2020/10/29 16:22 UTC NOAA

Soenderborg Lufthavn, Denmark (EKSB) 54-58N 009-47E 14M
Oct 29, 2020 - 12:22 PM EDT / 2020.10.29 1622 UTC
Wind: from the WSW (240 degrees) at 6 MPH (5 KT) (direction variable):0
Visibility: greater than 7 mile(s):0
Sky conditions: partly cloudy
Weather: Towering cumulus clouds observed
Temperature: 50 F (10 C)
Dew Point: 46 F (8 C)
Relative Humidity: 87%
Pressure (altimeter): 29.83 in. Hg (1010 hPa)
ob: EKSB 291622Z 24005KT 220V280 9999 FEW025TCU SCT080 10/08 Q1010
cycle: 16

Station Type Date Time Source
EKSB TAF 2016/01/27 09:03 UTC NOAA

TAF TAF EKSB 270856Z 2709/2721 23022KT 5000 -RA BR BKN008
TEMPO 2709/2721 24025G40KT 2000 RADZ BKN004

Example: see airport list